sensor_id;sensor_type;location;lat;lon;timestamp;P1;durP1;ratioP1;P2;durP2;ratioP2
24743;SDS011;12844;52.110;5.548;2023-04-24T03:54:59;0.90;;;0.90;;
24743;SDS011;12844;52.110;5.548;2023-04-24T03:57:24;0.68;;;0.68;;
24743;SDS011;12844;52.110;5.548;2023-04-24T03:59:50;1.02;;;0.90;;
24743;SDS011;12844;52.110;5.548;2023-04-24T04:02:16;0.68;;;0.68;;
24743;SDS011;12844;52.110;5.548;2023-04-24T04:04:41;1.00;;;0.68;;
24743;SDS011;12844;52.110;5.548;2023-04-24T04:07:07;0.80;;;0.68;;
24743;SDS011;12844;52.110;5.548;2023-04-24T04:09:33;0.75;;;0.70;;
24743;SDS011;12844;52.110;5.548;2023-04-24T04:11:59;0.90;;;0.68;;
24743;SDS011;12844;52.110;5.548;2023-04-24T04:14:25;0.70;;;0.70;;
24743;SDS011;12844;52.110;5.548;2023-04-24T04:16:51;0.55;;;0.55;;
24743;SDS011;12844;52.110;5.548;2023-04-24T04:19:16;0.60;;;0.60;;
24743;SDS011;12844;52.110;5.548;2023-04-24T04:21:42;0.60;;;0.60;;
24743;SDS011;12844;52.110;5.548;2023-04-24T04:24:08;0.90;;;0.70;;
24743;SDS011;12844;52.110;5.548;2023-04-24T04:26:34;0.60;;;0.60;;
24743;SDS011;12844;52.110;5.548;2023-04-24T04:29:00;1.15;;;0.70;;
24743;SDS011;12844;52.110;5.548;2023-04-24T04:31:25;0.55;;;0.55;;
24743;SDS011;12844;52.110;5.548;2023-04-24T04:33:51;0.88;;;0.70;;
24743;SDS011;12844;52.110;5.548;2023-04-24T04:36:16;0.73;;;0.60;;
24743;SDS011;12844;52.110;5.548;2023-04-24T04:38:42;0.60;;;0.60;;
24743;SDS011;12844;52.110;5.548;2023-04-24T04:41:09;0.80;;;0.60;;
24743;SDS011;12844;52.110;5.548;2023-04-24T04:43:35;0.60;;;0.60;;
24743;SDS011;12844;52.110;5.548;2023-04-24T04:46:01;0.50;;;0.50;;
24743;SDS011;12844;52.110;5.548;2023-04-24T04:48:28;0.50;;;0.50;;
24743;SDS011;12844;52.110;5.548;2023-04-24T04:50:53;0.57;;;0.57;;
24743;SDS011;12844;52.110;5.548;2023-04-24T04:53:19;0.80;;;0.65;;
24743;SDS011;12844;52.110;5.548;2023-04-24T04:55:45;0.40;;;0.40;;
24743;SDS011;12844;52.110;5.548;2023-04-24T04:58:11;0.55;;;0.50;;
24743;SDS011;12844;52.110;5.548;2023-04-24T05:00:37;0.88;;;0.60;;
24743;SDS011;12844;52.110;5.548;2023-04-24T05:03:04;1.05;;;0.52;;
24743;SDS011;12844;52.110;5.548;2023-04-24T05:05:30;0.50;;;0.50;;
24743;SDS011;12844;52.110;5.548;2023-04-24T05:07:55;0.60;;;0.60;;
24743;SDS011;12844;52.110;5.548;2023-04-24T05:10:21;0.40;;;0.40;;
24743;SDS011;12844;52.110;5.548;2023-04-24T05:12:46;0.52;;;0.52;;
24743;SDS011;12844;52.110;5.548;2023-04-24T05:15:12;0.50;;;0.50;;
24743;SDS011;12844;52.110;5.548;2023-04-24T05:17:37;0.47;;;0.47;;
24743;SDS011;12844;52.110;5.548;2023-04-24T05:20:04;0.50;;;0.50;;
24743;SDS011;12844;52.110;5.548;2023-04-24T05:22:31;0.40;;;0.40;;
24743;SDS011;12844;52.110;5.548;2023-04-24T05:24:57;0.85;;;0.50;;
24743;SDS011;12844;52.110;5.548;2023-04-24T05:27:23;0.55;;;0.50;;
24743;SDS011;12844;52.110;5.548;2023-04-24T05:29:49;0.50;;;0.50;;
24743;SDS011;12844;52.110;5.548;2023-04-24T05:32:14;0.40;;;0.40;;
24743;SDS011;12844;52.110;5.548;2023-04-24T05:34:40;0.50;;;0.43;;
24743;SDS011;12844;52.110;5.548;2023-04-24T05:37:05;1.02;;;0.60;;
24743;SDS011;12844;52.110;5.548;2023-04-24T05:39:33;0.70;;;0.52;;
24743;SDS011;12844;52.110;5.548;2023-04-24T05:42:00;0.55;;;0.40;;
24743;SDS011;12844;52.110;5.548;2023-04-24T05:44:26;0.40;;;0.40;;
24743;SDS011;12844;52.110;5.548;2023-04-24T05:46:52;0.45;;;0.40;;
24743;SDS011;12844;52.110;5.548;2023-04-24T05:49:17;0.40;;;0.40;;
24743;SDS011;12844;52.110;5.548;2023-04-24T05:51:43;0.60;;;0.40;;
24743;SDS011;12844;52.110;5.548;2023-04-24T05:54:08;0.32;;;0.32;;
24743;SDS011;12844;52.110;5.548;2023-04-24T05:56:35;0.47;;;0.35;;
24743;SDS011;12844;52.110;5.548;2023-04-24T05:59:01;0.57;;;0.50;;
24743;SDS011;12844;52.110;5.548;2023-04-24T06:01:26;0.95;;;0.50;;
24743;SDS011;12844;52.110;5.548;2023-04-24T06:03:52;0.43;;;0.43;;
24743;SDS011;12844;52.110;5.548;2023-04-24T06:06:18;0.85;;;0.50;;
24743;SDS011;12844;52.110;5.548;2023-04-24T06:08:44;0.55;;;0.47;;
24743;SDS011;12844;52.110;5.548;2023-04-24T06:11:10;0.80;;;0.52;;
24743;SDS011;12844;52.110;5.548;2023-04-24T06:13:35;0.50;;;0.50;;
24743;SDS011;12844;52.110;5.548;2023-04-24T06:16:01;0.70;;;0.63;;
24743;SDS011;12844;52.110;5.548;2023-04-24T06:18:27;0.50;;;0.50;;
24743;SDS011;12844;52.110;5.548;2023-04-24T06:20:52;1.17;;;0.50;;
24743;SDS011;12844;52.110;5.548;2023-04-24T06:23:18;0.47;;;0.47;;
24743;SDS011;12844;52.110;5.548;2023-04-24T06:25:43;0.40;;;0.40;;
24743;SDS011;12844;52.110;5.548;2023-04-24T06:28:09;0.70;;;0.50;;
24743;SDS011;12844;52.110;5.548;2023-04-24T06:30:34;0.63;;;0.43;;
24743;SDS011;12844;52.110;5.548;2023-04-24T06:33:00;0.40;;;0.40;;
24743;SDS011;12844;52.110;5.548;2023-04-24T06:35:25;0.40;;;0.40;;
24743;SDS011;12844;52.110;5.548;2023-04-24T06:37:51;0.75;;;0.47;;
24743;SDS011;12844;52.110;5.548;2023-04-24T06:40:16;0.85;;;0.40;;
24743;SDS011;12844;52.110;5.548;2023-04-24T06:42:43;0.57;;;0.40;;
24743;SDS011;12844;52.110;5.548;2023-04-24T06:45:09;0.50;;;0.50;;
24743;SDS011;12844;52.110;5.548;2023-04-24T06:47:35;0.30;;;0.30;;
24743;SDS011;12844;52.110;5.548;2023-04-24T06:50:01;0.60;;;0.40;;
24743;SDS011;12844;52.110;5.548;2023-04-24T06:52:26;0.40;;;0.40;;
24743;SDS011;12844;52.110;5.548;2023-04-24T06:54:52;0.60;;;0.40;;
24743;SDS011;12844;52.110;5.548;2023-04-24T06:57:18;0.57;;;0.45;;
24743;SDS011;12844;52.110;5.548;2023-04-24T06:59:44;0.85;;;0.40;;
24743;SDS011;12844;52.110;5.548;2023-04-24T07:02:10;0.30;;;0.30;;
24743;SDS011;12844;52.110;5.548;2023-04-24T07:04:35;0.57;;;0.40;;
24743;SDS011;12844;52.110;5.548;2023-04-24T07:07:01;0.77;;;0.50;;
24743;SDS011;12844;52.110;5.548;2023-04-24T07:09:27;0.50;;;0.50;;
24743;SDS011;12844;52.110;5.548;2023-04-24T07:11:53;0.40;;;0.40;;
24743;SDS011;12844;52.110;5.548;2023-04-24T07:14:19;0.90;;;0.50;;
24743;SDS011;12844;52.110;5.548;2023-04-24T07:16:45;0.70;;;0.60;;
24743;SDS011;12844;52.110;5.548;2023-04-24T07:19:11;0.60;;;0.60;;
24743;SDS011;12844;52.110;5.548;2023-04-24T07:21:37;0.80;;;0.60;;
24743;SDS011;12844;52.110;5.548;2023-04-24T07:24:03;0.55;;;0.40;;
24743;SDS011;12844;52.110;5.548;2023-04-24T07:26:29;0.57;;;0.50;;
24743;SDS011;12844;52.110;5.548;2023-04-24T07:28:56;0.68;;;0.50;;
24743;SDS011;12844;52.110;5.548;2023-04-24T07:31:21;0.40;;;0.40;;
24743;SDS011;12844;52.110;5.548;2023-04-24T07:33:47;0.60;;;0.60;;
24743;SDS011;12844;52.110;5.548;2023-04-24T07:36:13;1.02;;;0.70;;
24743;SDS011;12844;52.110;5.548;2023-04-24T07:38:44;0.82;;;0.60;;
24743;SDS011;12844;52.110;5.548;2023-04-24T07:41:10;0.68;;;0.60;;
24743;SDS011;12844;52.110;5.548;2023-04-24T07:43:35;0.60;;;0.60;;
24743;SDS011;12844;52.110;5.548;2023-04-24T07:46:01;0.70;;;0.60;;
24743;SDS011;12844;52.110;5.548;2023-04-24T07:48:26;0.75;;;0.60;;
24743;SDS011;12844;52.110;5.548;2023-04-24T07:50:52;0.63;;;0.60;;
24743;SDS011;12844;52.110;5.548;2023-04-24T07:53:18;0.75;;;0.60;;
24743;SDS011;12844;52.110;5.548;2023-04-24T07:55:44;1.30;;;0.80;;
24743;SDS011;12844;52.110;5.548;2023-04-24T07:58:09;0.80;;;0.77;;
24743;SDS011;12844;52.110;5.548;2023-04-24T08:00:35;0.98;;;0.77;;
24743;SDS011;12844;52.110;5.548;2023-04-24T08:03:01;0.80;;;0.80;;
24743;SDS011;12844;52.110;5.548;2023-04-24T08:05:26;0.88;;;0.75;;
24743;SDS011;12844;52.110;5.548;2023-04-24T08:07:53;0.98;;;0.60;;
24743;SDS011;12844;52.110;5.548;2023-04-24T08:10:19;0.60;;;0.60;;
24743;SDS011;12844;52.110;5.548;2023-04-24T08:12:46;0.70;;;0.70;;
24743;SDS011;12844;52.110;5.548;2023-04-24T08:15:12;1.00;;;0.60;;
24743;SDS011;12844;52.110;5.548;2023-04-24T08:17:37;0.77;;;0.70;;
24743;SDS011;12844;52.110;5.548;2023-04-24T08:20:03;0.70;;;0.70;;
24743;SDS011;12844;52.110;5.548;2023-04-24T08:22:30;0.80;;;0.60;;
24743;SDS011;12844;52.110;5.548;2023-04-24T08:24:56;1.42;;;0.70;;
24743;SDS011;12844;52.110;5.548;2023-04-24T08:27:22;1.60;;;0.80;;
24743;SDS011;12844;52.110;5.548;2023-04-24T08:29:49;1.10;;;0.73;;
24743;SDS011;12844;52.110;5.548;2023-04-24T08:32:15;0.65;;;0.55;;
24743;SDS011;12844;52.110;5.548;2023-04-24T08:34:40;0.93;;;0.80;;
24743;SDS011;12844;52.110;5.548;2023-04-24T08:37:06;1.77;;;0.90;;
24743;SDS011;12844;52.110;5.548;2023-04-24T08:39:31;1.25;;;0.80;;
24743;SDS011;12844;52.110;5.548;2023-04-24T08:41:57;2.10;;;0.85;;
24743;SDS011;12844;52.110;5.548;2023-04-24T08:46:59;1.10;;;0.82;;
24743;SDS011;12844;52.110;5.548;2023-04-24T08:49:27;1.08;;;0.80;;
24743;SDS011;12844;52.110;5.548;2023-04-24T08:51:54;1.33;;;0.70;;
24743;SDS011;12844;52.110;5.548;2023-04-24T08:54:19;2.35;;;1.00;;
24743;SDS011;12844;52.110;5.548;2023-04-24T08:56:46;1.95;;;1.05;;
24743;SDS011;12844;52.110;5.548;2023-04-24T08:59:14;0.82;;;0.82;;
24743;SDS011;12844;52.110;5.548;2023-04-24T09:01:40;1.08;;;0.77;;
24743;SDS011;12844;52.110;5.548;2023-04-24T09:04:07;1.10;;;0.80;;
24743;SDS011;12844;52.110;5.548;2023-04-24T09:06:37;1.63;;;0.90;;
24743;SDS011;12844;52.110;5.548;2023-04-24T09:09:03;0.93;;;0.82;;
24743;SDS011;12844;52.110;5.548;2023-04-24T09:11:29;1.40;;;1.00;;
24743;SDS011;12844;52.110;5.548;2023-04-24T09:13:56;0.82;;;0.80;;
24743;SDS011;12844;52.110;5.548;2023-04-24T09:16:22;1.15;;;0.90;;
24743;SDS011;12844;52.110;5.548;2023-04-24T09:18:50;1.33;;;0.80;;
24743;SDS011;12844;52.110;5.548;2023-04-24T09:21:16;0.88;;;0.70;;
24743;SDS011;12844;52.110;5.548;2023-04-24T09:23:41;1.27;;;0.98;;
24743;SDS011;12844;52.110;5.548;2023-04-24T09:26:07;2.00;;;1.10;;
24743;SDS011;12844;52.110;5.548;2023-04-24T09:28:35;1.60;;;1.10;;
24743;SDS011;12844;52.110;5.548;2023-04-24T09:31:08;1.50;;;0.90;;
24743;SDS011;12844;52.110;5.548;2023-04-24T09:33:38;1.63;;;0.80;;
24743;SDS011;12844;52.110;5.548;2023-04-24T09:36:04;1.00;;;0.80;;
24743;SDS011;12844;52.110;5.548;2023-04-24T09:38:35;1.52;;;1.00;;
24743;SDS011;12844;52.110;5.548;2023-04-24T09:41:02;1.63;;;1.13;;
24743;SDS011;12844;52.110;5.548;2023-04-24T09:43:30;1.80;;;1.05;;
24743;SDS011;12844;52.110;5.548;2023-04-24T09:45:57;1.25;;;0.90;;
24743;SDS011;12844;52.110;5.548;2023-04-24T09:48:33;1.73;;;1.00;;
24743;SDS011;12844;52.110;5.548;2023-04-24T09:51:00;1.65;;;0.95;;
24743;SDS011;12844;52.110;5.548;2023-04-24T09:53:28;1.70;;;0.80;;
24743;SDS011;12844;52.110;5.548;2023-04-24T09:55:54;2.25;;;0.90;;
24743;SDS011;12844;52.110;5.548;2023-04-24T09:58:26;1.23;;;1.00;;
24743;SDS011;12844;52.110;5.548;2023-04-24T10:00:54;1.33;;;0.90;;
24743;SDS011;12844;52.110;5.548;2023-04-24T10:03:20;1.98;;;0.82;;
24743;SDS011;12844;52.110;5.548;2023-04-24T10:05:48;2.33;;;0.95;;
24743;SDS011;12844;52.110;5.548;2023-04-24T10:08:14;1.13;;;0.88;;
24743;SDS011;12844;52.110;5.548;2023-04-24T10:10:41;2.30;;;0.98;;
24743;SDS011;12844;52.110;5.548;2023-04-24T10:13:11;1.67;;;1.00;;
24743;SDS011;12844;52.110;5.548;2023-04-24T10:15:38;1.63;;;1.05;;
24743;SDS011;12844;52.110;5.548;2023-04-24T13:27:07;1.88;;;0.73;;
24743;SDS011;12844;52.110;5.548;2023-04-24T13:29:33;1.40;;;0.70;;
24743;SDS011;12844;52.110;5.548;2023-04-24T13:31:59;1.45;;;0.70;;
24743;SDS011;12844;52.110;5.548;2023-04-24T13:34:25;1.42;;;0.70;;
24743;SDS011;12844;52.110;5.548;2023-04-24T13:36:55;1.20;;;0.63;;
24743;SDS011;12844;52.110;5.548;2023-04-24T13:39:22;1.25;;;0.60;;
24743;SDS011;12844;52.110;5.548;2023-04-24T13:41:48;0.98;;;0.65;;
24743;SDS011;12844;52.110;5.548;2023-04-24T13:44:17;1.63;;;0.90;;
24743;SDS011;12844;52.110;5.548;2023-04-24T13:46:44;1.17;;;0.73;;
24743;SDS011;12844;52.110;5.548;2023-04-24T13:49:12;1.33;;;0.80;;
24743;SDS011;12844;52.110;5.548;2023-04-24T13:51:39;2.33;;;0.85;;
24743;SDS011;12844;52.110;5.548;2023-04-24T13:54:05;1.00;;;0.70;;
24743;SDS011;12844;52.110;5.548;2023-04-24T13:56:30;1.10;;;0.80;;
24743;SDS011;12844;52.110;5.548;2023-04-24T13:58:56;1.45;;;0.80;;
24743;SDS011;12844;52.110;5.548;2023-04-24T14:01:21;1.70;;;0.70;;
24743;SDS011;12844;52.110;5.548;2023-04-24T14:03:50;1.67;;;0.80;;
24743;SDS011;12844;52.110;5.548;2023-04-24T14:06:17;1.52;;;0.77;;
24743;SDS011;12844;52.110;5.548;2023-04-24T14:08:43;1.33;;;0.70;;
24743;SDS011;12844;52.110;5.548;2023-04-24T14:11:08;1.75;;;0.90;;
24743;SDS011;12844;52.110;5.548;2023-04-24T14:13:35;1.98;;;0.95;;
24743;SDS011;12844;52.110;5.548;2023-04-24T14:16:01;2.13;;;0.90;;
24743;SDS011;12844;52.110;5.548;2023-04-24T14:18:27;1.95;;;0.98;;
24743;SDS011;12844;52.110;5.548;2023-04-24T14:20:53;1.45;;;0.80;;
24743;SDS011;12844;52.110;5.548;2023-04-24T14:23:19;1.90;;;0.90;;
24743;SDS011;12844;52.110;5.548;2023-04-24T14:25:45;1.60;;;0.90;;
24743;SDS011;12844;52.110;5.548;2023-04-24T14:28:11;1.90;;;0.80;;
24743;SDS011;12844;52.110;5.548;2023-04-24T14:30:36;1.27;;;0.90;;
24743;SDS011;12844;52.110;5.548;2023-04-24T14:33:02;1.67;;;0.90;;
24743;SDS011;12844;52.110;5.548;2023-04-24T14:35:28;1.00;;;0.80;;
24743;SDS011;12844;52.110;5.548;2023-04-24T14:37:56;1.90;;;0.90;;
24743;SDS011;12844;52.110;5.548;2023-04-24T14:40:22;1.50;;;0.85;;
24743;SDS011;12844;52.110;5.548;2023-04-24T14:42:47;1.58;;;1.00;;
24743;SDS011;12844;52.110;5.548;2023-04-24T14:45:13;2.17;;;0.80;;
24743;SDS011;12844;52.110;5.548;2023-04-24T14:47:38;2.90;;;0.85;;
24743;SDS011;12844;52.110;5.548;2023-04-24T14:50:04;2.92;;;1.00;;
24743;SDS011;12844;52.110;5.548;2023-04-24T14:52:30;2.33;;;0.90;;
24743;SDS011;12844;52.110;5.548;2023-04-24T14:54:56;1.75;;;1.02;;
24743;SDS011;12844;52.110;5.548;2023-04-24T14:57:22;1.65;;;1.00;;
24743;SDS011;12844;52.110;5.548;2023-04-24T14:59:48;1.83;;;1.00;;
24743;SDS011;12844;52.110;5.548;2023-04-24T15:02:13;1.40;;;1.13;;
24743;SDS011;12844;52.110;5.548;2023-04-24T15:04:39;2.92;;;0.98;;
24743;SDS011;12844;52.110;5.548;2023-04-24T15:07:04;1.55;;;0.90;;
24743;SDS011;12844;52.110;5.548;2023-04-24T15:09:30;1.30;;;1.00;;
24743;SDS011;12844;52.110;5.548;2023-04-24T15:11:57;1.50;;;1.00;;
24743;SDS011;12844;52.110;5.548;2023-04-24T15:14:23;1.42;;;1.00;;
24743;SDS011;12844;52.110;5.548;2023-04-24T15:16:49;1.50;;;1.08;;
24743;SDS011;12844;52.110;5.548;2023-04-24T15:19:14;2.05;;;0.90;;
24743;SDS011;12844;52.110;5.548;2023-04-24T15:21:40;2.67;;;1.33;;
24743;SDS011;12844;52.110;5.548;2023-04-24T15:24:07;1.50;;;0.98;;
24743;SDS011;12844;52.110;5.548;2023-04-24T15:26:33;1.35;;;0.75;;
24743;SDS011;12844;52.110;5.548;2023-04-24T15:28:59;2.60;;;1.20;;
24743;SDS011;12844;52.110;5.548;2023-04-24T15:31:24;1.23;;;0.85;;
24743;SDS011;12844;52.110;5.548;2023-04-24T15:33:51;1.95;;;1.00;;
24743;SDS011;12844;52.110;5.548;2023-04-24T15:36:17;1.33;;;1.00;;
24743;SDS011;12844;52.110;5.548;2023-04-24T15:38:43;2.28;;;1.08;;
24743;SDS011;12844;52.110;5.548;2023-04-24T15:41:09;2.75;;;1.02;;
24743;SDS011;12844;52.110;5.548;2023-04-24T15:43:35;2.65;;;1.02;;
24743;SDS011;12844;52.110;5.548;2023-04-24T15:46:01;3.17;;;1.50;;
24743;SDS011;12844;52.110;5.548;2023-04-24T15:48:27;2.35;;;0.95;;
24743;SDS011;12844;52.110;5.548;2023-04-24T15:50:53;3.00;;;1.33;;
24743;SDS011;12844;52.110;5.548;2023-04-24T15:53:20;2.50;;;1.10;;
24743;SDS011;12844;52.110;5.548;2023-04-24T15:55:48;3.40;;;1.30;;
24743;SDS011;12844;52.110;5.548;2023-04-24T15:58:15;2.22;;;1.20;;
24743;SDS011;12844;52.110;5.548;2023-04-24T16:00:41;1.77;;;1.17;;
24743;SDS011;12844;52.110;5.548;2023-04-24T16:03:06;3.17;;;1.02;;
24743;SDS011;12844;52.110;5.548;2023-04-24T16:05:32;2.28;;;1.30;;
24743;SDS011;12844;52.110;5.548;2023-04-24T16:07:58;2.15;;;1.15;;
24743;SDS011;12844;52.110;5.548;2023-04-24T16:10:24;3.03;;;1.55;;
24743;SDS011;12844;52.110;5.548;2023-04-24T16:12:50;1.67;;;1.17;;
24743;SDS011;12844;52.110;5.548;2023-04-24T16:15:17;2.58;;;1.17;;
24743;SDS011;12844;52.110;5.548;2023-04-24T16:17:43;2.30;;;1.15;;
24743;SDS011;12844;52.110;5.548;2023-04-24T16:20:08;2.63;;;1.10;;
24743;SDS011;12844;52.110;5.548;2023-04-24T16:22:34;2.17;;;0.98;;
24743;SDS011;12844;52.110;5.548;2023-04-24T16:25:00;2.22;;;1.13;;
24743;SDS011;12844;52.110;5.548;2023-04-24T16:27:25;2.83;;;1.40;;
24743;SDS011;12844;52.110;5.548;2023-04-24T16:29:51;2.53;;;1.40;;
24743;SDS011;12844;52.110;5.548;2023-04-24T16:32:17;3.60;;;1.85;;
24743;SDS011;12844;52.110;5.548;2023-04-24T16:34:42;3.25;;;1.40;;
24743;SDS011;12844;52.110;5.548;2023-04-24T16:37:08;3.08;;;1.70;;
24743;SDS011;12844;52.110;5.548;2023-04-24T16:39:33;2.30;;;1.23;;
24743;SDS011;12844;52.110;5.548;2023-04-24T16:41:59;2.67;;;1.40;;
24743;SDS011;12844;52.110;5.548;2023-04-24T16:44:25;2.75;;;1.50;;
24743;SDS011;12844;52.110;5.548;2023-04-24T16:46:51;3.03;;;1.50;;
24743;SDS011;12844;52.110;5.548;2023-04-24T16:49:17;1.52;;;1.10;;
24743;SDS011;12844;52.110;5.548;2023-04-24T16:51:42;2.08;;;1.20;;
24743;SDS011;12844;52.110;5.548;2023-04-24T16:54:08;3.28;;;1.20;;
24743;SDS011;12844;52.110;5.548;2023-04-24T16:56:33;3.05;;;1.38;;
24743;SDS011;12844;52.110;5.548;2023-04-24T16:58:59;2.28;;;1.48;;
24743;SDS011;12844;52.110;5.548;2023-04-24T17:01:24;3.03;;;1.45;;
24743;SDS011;12844;52.110;5.548;2023-04-24T17:03:50;3.05;;;1.63;;
24743;SDS011;12844;52.110;5.548;2023-04-24T17:06:15;2.70;;;1.50;;
24743;SDS011;12844;52.110;5.548;2023-04-24T17:08:41;2.78;;;1.17;;
24743;SDS011;12844;52.110;5.548;2023-04-24T17:11:07;2.20;;;1.25;;
24743;SDS011;12844;52.110;5.548;2023-04-24T17:13:32;3.70;;;1.50;;
24743;SDS011;12844;52.110;5.548;2023-04-24T17:15:58;2.63;;;1.50;;
24743;SDS011;12844;52.110;5.548;2023-04-24T17:18:23;3.03;;;1.60;;
24743;SDS011;12844;52.110;5.548;2023-04-24T17:20:49;3.15;;;1.30;;
24743;SDS011;12844;52.110;5.548;2023-04-24T17:23:14;2.97;;;1.60;;
24743;SDS011;12844;52.110;5.548;2023-04-24T17:25:40;2.97;;;1.55;;
24743;SDS011;12844;52.110;5.548;2023-04-24T17:28:12;3.28;;;1.55;;
24743;SDS011;12844;52.110;5.548;2023-04-24T17:30:47;2.97;;;1.60;;
24743;SDS011;12844;52.110;5.548;2023-04-24T17:33:13;3.88;;;1.45;;
24743;SDS011;12844;52.110;5.548;2023-04-24T17:35:38;2.45;;;1.45;;
24743;SDS011;12844;52.110;5.548;2023-04-24T17:38:04;2.92;;;1.60;;
24743;SDS011;12844;52.110;5.548;2023-04-24T17:40:29;2.63;;;1.67;;
24743;SDS011;12844;52.110;5.548;2023-04-24T17:42:55;3.40;;;1.83;;
24743;SDS011;12844;52.110;5.548;2023-04-24T17:45:20;3.78;;;1.50;;
24743;SDS011;12844;52.110;5.548;2023-04-24T17:47:46;2.75;;;1.60;;
24743;SDS011;12844;52.110;5.548;2023-04-24T17:50:12;3.83;;;1.48;;
24743;SDS011;12844;52.110;5.548;2023-04-24T17:52:38;3.47;;;1.90;;
24743;SDS011;12844;52.110;5.548;2023-04-24T17:55:03;3.28;;;1.40;;
24743;SDS011;12844;52.110;5.548;2023-04-24T17:57:29;3.35;;;1.55;;
24743;SDS011;12844;52.110;5.548;2023-04-24T17:59:55;4.30;;;1.70;;
24743;SDS011;12844;52.110;5.548;2023-04-24T18:02:21;2.67;;;1.67;;
24743;SDS011;12844;52.110;5.548;2023-04-24T18:04:46;3.58;;;1.60;;
24743;SDS011;12844;52.110;5.548;2023-04-24T18:07:12;4.22;;;1.83;;
24743;SDS011;12844;52.110;5.548;2023-04-24T18:09:37;5.20;;;1.75;;
24743;SDS011;12844;52.110;5.548;2023-04-24T18:12:03;4.25;;;1.55;;
24743;SDS011;12844;52.110;5.548;2023-04-24T18:14:29;3.50;;;1.55;;
24743;SDS011;12844;52.110;5.548;2023-04-24T18:16:55;2.63;;;1.67;;
24743;SDS011;12844;52.110;5.548;2023-04-24T18:19:20;3.13;;;1.58;;
24743;SDS011;12844;52.110;5.548;2023-04-24T18:21:46;2.95;;;1.50;;
24743;SDS011;12844;52.110;5.548;2023-04-24T18:24:11;3.10;;;1.70;;
24743;SDS011;12844;52.110;5.548;2023-04-24T18:26:37;2.53;;;1.52;;
24743;SDS011;12844;52.110;5.548;2023-04-24T18:29:02;3.60;;;1.70;;
24743;SDS011;12844;52.110;5.548;2023-04-24T18:31:28;3.92;;;1.77;;
24743;SDS011;12844;52.110;5.548;2023-04-24T18:33:55;4.03;;;1.80;;
24743;SDS011;12844;52.110;5.548;2023-04-24T18:36:21;3.00;;;1.75;;
24743;SDS011;12844;52.110;5.548;2023-04-24T18:38:46;2.63;;;1.60;;
24743;SDS011;12844;52.110;5.548;2023-04-24T18:41:12;3.97;;;1.80;;
24743;SDS011;12844;52.110;5.548;2023-04-24T18:43:38;3.03;;;1.60;;
24743;SDS011;12844;52.110;5.548;2023-04-24T18:46:03;2.78;;;1.70;;
24743;SDS011;12844;52.110;5.548;2023-04-24T18:48:29;3.55;;;1.50;;
24743;SDS011;12844;52.110;5.548;2023-04-24T18:50:55;2.88;;;1.80;;
24743;SDS011;12844;52.110;5.548;2023-04-24T18:53:20;3.10;;;1.60;;
24743;SDS011;12844;52.110;5.548;2023-04-24T18:55:46;5.05;;;2.00;;
24743;SDS011;12844;52.110;5.548;2023-04-24T18:58:12;3.33;;;2.03;;
24743;SDS011;12844;52.110;5.548;2023-04-24T19:00:37;2.50;;;1.60;;
24743;SDS011;12844;52.110;5.548;2023-04-24T19:03:03;2.42;;;1.27;;
24743;SDS011;12844;52.110;5.548;2023-04-24T19:05:28;3.33;;;1.70;;
24743;SDS011;12844;52.110;5.548;2023-04-24T19:07:55;2.65;;;1.60;;
24743;SDS011;12844;52.110;5.548;2023-04-24T19:10:20;2.88;;;1.80;;
24743;SDS011;12844;52.110;5.548;2023-04-24T19:12:46;4.05;;;1.80;;
24743;SDS011;12844;52.110;5.548;2023-04-24T19:15:13;2.97;;;1.70;;
24743;SDS011;12844;52.110;5.548;2023-04-24T19:17:38;3.08;;;1.73;;
24743;SDS011;12844;52.110;5.548;2023-04-24T19:20:04;2.20;;;1.50;;
24743;SDS011;12844;52.110;5.548;2023-04-24T19:22:30;3.10;;;1.50;;
24743;SDS011;12844;52.110;5.548;2023-04-24T19:24:56;3.50;;;1.63;;
24743;SDS011;12844;52.110;5.548;2023-04-24T19:27:22;2.83;;;1.60;;
24743;SDS011;12844;52.110;5.548;2023-04-24T19:29:48;3.95;;;1.60;;
24743;SDS011;12844;52.110;5.548;2023-04-24T19:32:15;2.90;;;1.67;;
24743;SDS011;12844;52.110;5.548;2023-04-24T19:34:41;3.03;;;1.50;;
24743;SDS011;12844;52.110;5.548;2023-04-24T19:37:07;2.10;;;1.50;;
24743;SDS011;12844;52.110;5.548;2023-04-24T19:39:32;3.20;;;1.63;;
24743;SDS011;12844;52.110;5.548;2023-04-24T19:41:58;2.08;;;1.50;;
24743;SDS011;12844;52.110;5.548;2023-04-24T19:44:25;2.92;;;1.50;;
24743;SDS011;12844;52.110;5.548;2023-04-24T19:46:50;3.10;;;1.70;;
24743;SDS011;12844;52.110;5.548;2023-04-24T19:49:16;3.53;;;1.55;;
24743;SDS011;12844;52.110;5.548;2023-04-24T19:51:41;3.05;;;1.55;;
24743;SDS011;12844;52.110;5.548;2023-04-24T19:54:07;3.90;;;1.77;;
24743;SDS011;12844;52.110;5.548;2023-04-24T19:56:32;3.00;;;1.63;;
24743;SDS011;12844;52.110;5.548;2023-04-24T19:58:58;2.25;;;1.40;;
24743;SDS011;12844;52.110;5.548;2023-04-24T20:01:23;3.22;;;1.70;;
24743;SDS011;12844;52.110;5.548;2023-04-24T20:03:49;2.47;;;1.70;;
24743;SDS011;12844;52.110;5.548;2023-04-24T20:06:15;3.30;;;1.60;;
24743;SDS011;12844;52.110;5.548;2023-04-24T20:08:40;3.22;;;1.60;;
24743;SDS011;12844;52.110;5.548;2023-04-24T20:11:06;2.80;;;1.50;;
24743;SDS011;12844;52.110;5.548;2023-04-24T20:13:32;3.15;;;1.90;;
24743;SDS011;12844;52.110;5.548;2023-04-24T20:15:58;3.28;;;1.50;;
24743;SDS011;12844;52.110;5.548;2023-04-24T20:18:23;2.50;;;1.67;;
24743;SDS011;12844;52.110;5.548;2023-04-24T20:20:49;2.67;;;1.63;;
24743;SDS011;12844;52.110;5.548;2023-04-24T20:23:20;2.40;;;1.60;;
24743;SDS011;12844;52.110;5.548;2023-04-24T20:25:46;2.63;;;1.70;;
24743;SDS011;12844;52.110;5.548;2023-04-24T20:28:12;2.05;;;1.30;;
24743;SDS011;12844;52.110;5.548;2023-04-24T20:30:38;2.00;;;1.50;;
24743;SDS011;12844;52.110;5.548;2023-04-24T20:33:04;2.78;;;1.30;;
24743;SDS011;12844;52.110;5.548;2023-04-24T20:35:30;1.85;;;1.40;;
24743;SDS011;12844;52.110;5.548;2023-04-24T20:37:55;3.42;;;1.50;;
24743;SDS011;12844;52.110;5.548;2023-04-24T20:40:23;2.13;;;1.40;;
24743;SDS011;12844;52.110;5.548;2023-04-24T20:42:49;2.28;;;1.50;;
24743;SDS011;12844;52.110;5.548;2023-04-24T20:45:15;2.58;;;1.50;;
24743;SDS011;12844;52.110;5.548;2023-04-24T20:47:41;2.75;;;1.27;;
24743;SDS011;12844;52.110;5.548;2023-04-24T20:50:07;2.63;;;1.58;;
24743;SDS011;12844;52.110;5.548;2023-04-24T20:52:33;3.40;;;1.33;;
24743;SDS011;12844;52.110;5.548;2023-04-24T20:54:59;1.90;;;1.10;;
24743;SDS011;12844;52.110;5.548;2023-04-24T20:57:24;3.20;;;1.60;;
24743;SDS011;12844;52.110;5.548;2023-04-24T20:59:50;2.45;;;1.63;;
24743;SDS011;12844;52.110;5.548;2023-04-24T21:02:15;2.78;;;1.20;;
24743;SDS011;12844;52.110;5.548;2023-04-24T21:04:41;2.85;;;1.38;;
24743;SDS011;12844;52.110;5.548;2023-04-24T21:07:06;2.08;;;1.23;;
24743;SDS011;12844;52.110;5.548;2023-04-24T21:09:34;3.58;;;1.30;;
24743;SDS011;12844;52.110;5.548;2023-04-24T21:11:59;3.58;;;1.02;;
24743;SDS011;12844;52.110;5.548;2023-04-24T21:14:26;5.50;;;1.35;;
24743;SDS011;12844;52.110;5.548;2023-04-24T21:16:52;4.75;;;1.13;;
24743;SDS011;12844;52.110;5.548;2023-04-24T21:19:20;5.28;;;1.27;;
24743;SDS011;12844;52.110;5.548;2023-04-24T21:21:45;4.40;;;1.17;;
24743;SDS011;12844;52.110;5.548;2023-04-24T21:24:11;3.40;;;1.00;;
24743;SDS011;12844;52.110;5.548;2023-04-24T21:26:36;1.92;;;1.00;;
24743;SDS011;12844;52.110;5.548;2023-04-24T21:29:02;5.22;;;1.33;;
24743;SDS011;12844;52.110;5.548;2023-04-24T21:31:28;3.63;;;1.13;;
24743;SDS011;12844;52.110;5.548;2023-04-24T21:33:53;2.55;;;1.08;;
24743;SDS011;12844;52.110;5.548;2023-04-24T21:36:19;2.35;;;1.00;;
24743;SDS011;12844;52.110;5.548;2023-04-24T21:38:44;4.28;;;1.08;;
24743;SDS011;12844;52.110;5.548;2023-04-24T21:41:10;4.57;;;1.10;;
24743;SDS011;12844;52.110;5.548;2023-04-24T21:43:35;3.53;;;1.05;;
24743;SDS011;12844;52.110;5.548;2023-04-24T21:46:01;4.68;;;1.40;;